In Rescue
 
Open Full Screen Window  High Contrast Mode
July 25, 2021 8:25 AM CDT
Weather Information
Wind Direction
  ---
Wind Speed
  00 kt (0 mph)
Wind Gust
  00 kt (0 mph)
Altimeter
30.04 in
Visibility
10 SM
Temperature
22° C
72° F
Dewpoint
14° C
57° F
Humidity
61%
1hr Rain Fall
00.00 in.
24hr Rain Fall
00.00 in.
Sky Condition
Clear
VFR

METAR KCNB 251325Z AUTO 00000KT 10SM CLR 22/14 A3004 RMK AO2 T02170142

FAA Disclaimer: The data displayed is for advisory purposes only and is not to be used for flight planning or operations.